Weather at Teesside International Airport

Public forecast

Using degrees Celsius for public forecast. Weather courtesy of forecast.io.

Current aviation weather report (METAR) for Teesside International Airport

Report is more than 6 hours old.

2024/05/19 20:50 (retrieved 6 hours ago)

EGNV 192050Z 03006KT 9999 BKN011 11/09 Q1018

Closest aviation forecast (TAF) to Teesside International Airport

Forecast is more than 12 hours old.

Closest forecast is Isle of Man Airport, 114.8 nm (212.6 km) WSW.

2024/05/19 06:12 (retrieved 21 hours ago)

TAF TAF EGNS 190500Z 1906/1918 35006KT 9999 FEW006